sensor_id;sensor_type;location;lat;lon;timestamp;pressure;altitude;pressure_sealevel;temperature;humidity
17450;BME280;8842;51.244;7.102;2024-03-22T00:01:03;99975.91;;;10.91;100.00
17450;BME280;8842;51.244;7.102;2024-03-22T00:06:08;99978.30;;;10.89;100.00
17450;BME280;8842;51.244;7.102;2024-03-22T00:16:23;99978.45;;;10.93;100.00
17450;BME280;8842;51.244;7.102;2024-03-22T00:26:40;99958.20;;;10.85;100.00
17450;BME280;8842;51.244;7.102;2024-03-22T00:31:44;99969.80;;;10.84;100.00
17450;BME280;8842;51.244;7.102;2024-03-22T00:36:48;99946.45;;;10.82;100.00
17450;BME280;8842;51.244;7.102;2024-03-22T00:41:54;99948.06;;;10.84;100.00
17450;BME280;8842;51.244;7.102;2024-03-22T00:46:58;99943.55;;;10.92;100.00
17450;BME280;8842;51.244;7.102;2024-03-22T00:52:03;99932.63;;;10.89;100.00
17450;BME280;8842;51.244;7.102;2024-03-22T00:57:07;99927.13;;;10.80;100.00
17450;BME280;8842;51.244;7.102;2024-03-22T01:07:23;99902.07;;;10.89;100.00
17450;BME280;8842;51.244;7.102;2024-03-22T01:17:39;99890.88;;;10.79;100.00
17450;BME280;8842;51.244;7.102;2024-03-22T01:22:43;99884.53;;;10.99;100.00
17450;BME280;8842;51.244;7.102;2024-03-22T01:27:47;99886.47;;;11.03;100.00
17450;BME280;8842;51.244;7.102;2024-03-22T01:32:51;99874.62;;;11.01;100.00
17450;BME280;8842;51.244;7.102;2024-03-22T01:37:56;99877.14;;;10.97;100.00
17450;BME280;8842;51.244;7.102;2024-03-22T01:43:00;99870.61;;;11.14;100.00
17450;BME280;8842;51.244;7.102;2024-03-22T01:48:05;99864.77;;;11.09;100.00
17450;BME280;8842;51.244;7.102;2024-03-22T01:58:25;99838.12;;;10.98;100.00
17450;BME280;8842;51.244;7.102;2024-03-22T02:08:41;99840.31;;;11.04;100.00
17450;BME280;8842;51.244;7.102;2024-03-22T02:18:59;99829.77;;;10.97;100.00
17450;BME280;8842;51.244;7.102;2024-03-22T02:29:18;99781.80;;;10.93;100.00
17450;BME280;8842;51.244;7.102;2024-03-22T02:34:22;99782.91;;;10.96;100.00
17450;BME280;8842;51.244;7.102;2024-03-22T02:39:26;99783.92;;;10.88;100.00
17450;BME280;8842;51.244;7.102;2024-03-22T02:44:32;99787.86;;;10.95;100.00
17450;BME280;8842;51.244;7.102;2024-03-22T02:49:36;99774.05;;;10.90;100.00
17450;BME280;8842;51.244;7.102;2024-03-22T02:54:40;99775.67;;;10.98;100.00
17450;BME280;8842;51.244;7.102;2024-03-22T02:59:44;99779.50;;;10.94;100.00
17450;BME280;8842;51.244;7.102;2024-03-22T03:10:00;99755.88;;;11.02;100.00
17450;BME280;8842;51.244;7.102;2024-03-22T03:20:18;99753.58;;;11.03;100.00
17450;BME280;8842;51.244;7.102;2024-03-22T03:25:22;99745.72;;;11.01;100.00
17450;BME280;8842;51.244;7.102;2024-03-22T03:30:26;99735.94;;;11.02;100.00
17450;BME280;8842;51.244;7.102;2024-03-22T03:35:30;99725.80;;;10.83;100.00
17450;BME280;8842;51.244;7.102;2024-03-22T03:45:47;99724.32;;;10.97;100.00
17450;BME280;8842;51.244;7.102;2024-03-22T03:50:54;99717.61;;;10.86;100.00
17450;BME280;8842;51.244;7.102;2024-03-22T03:55:58;99724.98;;;10.83;100.00
17450;BME280;8842;51.244;7.102;2024-03-22T04:01:06;99712.41;;;10.85;100.00
17450;BME280;8842;51.244;7.102;2024-03-22T04:06:10;99708.39;;;10.74;100.00
17450;BME280;8842;51.244;7.102;2024-03-22T04:11:14;99703.02;;;10.68;100.00
17450;BME280;8842;51.244;7.102;2024-03-22T04:16:19;99689.34;;;10.56;100.00
17450;BME280;8842;51.244;7.102;2024-03-22T04:21:23;99681.18;;;10.47;100.00
17450;BME280;8842;51.244;7.102;2024-03-22T04:26:27;99668.90;;;10.51;100.00
17450;BME280;8842;51.244;7.102;2024-03-22T04:31:32;99669.02;;;10.50;100.00
17450;BME280;8842;51.244;7.102;2024-03-22T04:41:47;99654.92;;;10.55;100.00
17450;BME280;8842;51.244;7.102;2024-03-22T04:46:51;99644.09;;;10.40;100.00
17450;BME280;8842;51.244;7.102;2024-03-22T04:51:56;99640.83;;;10.42;100.00
17450;BME280;8842;51.244;7.102;2024-03-22T05:02:11;99630.28;;;10.53;100.00
17450;BME280;8842;51.244;7.102;2024-03-22T05:07:16;99621.21;;;10.50;100.00
17450;BME280;8842;51.244;7.102;2024-03-22T05:12:20;99619.90;;;10.55;100.00
17450;BME280;8842;51.244;7.102;2024-03-22T05:17:24;99614.02;;;10.63;100.00
17450;BME280;8842;51.244;7.102;2024-03-22T05:22:28;99621.88;;;10.64;100.00
17450;BME280;8842;51.244;7.102;2024-03-22T05:27:32;99613.41;;;10.88;100.00
17450;BME280;8842;51.244;7.102;2024-03-22T05:32:36;99613.17;;;10.97;100.00
17450;BME280;8842;51.244;7.102;2024-03-22T05:37:40;99611.72;;;10.87;100.00
17450;BME280;8842;51.244;7.102;2024-03-22T05:42:45;99606.81;;;11.05;100.00
17450;BME280;8842;51.244;7.102;2024-03-22T05:47:49;99607.98;;;11.01;100.00
17450;BME280;8842;51.244;7.102;2024-03-22T05:52:53;99605.37;;;11.12;100.00
17450;BME280;8842;51.244;7.102;2024-03-22T05:57:57;99609.86;;;11.28;100.00
17450;BME280;8842;51.244;7.102;2024-03-22T06:03:01;99604.06;;;11.39;100.00
17450;BME280;8842;51.244;7.102;2024-03-22T06:08:06;99610.63;;;11.46;100.00
17450;BME280;8842;51.244;7.102;2024-03-22T06:13:11;99606.13;;;11.47;100.00
17450;BME280;8842;51.244;7.102;2024-03-22T06:18:15;99602.90;;;11.60;100.00
17450;BME280;8842;51.244;7.102;2024-03-22T06:23:19;99607.39;;;11.65;100.00
17450;BME280;8842;51.244;7.102;2024-03-22T06:28:24;99610.66;;;11.74;100.00
17450;BME280;8842;51.244;7.102;2024-03-22T06:33:27;99597.45;;;11.78;100.00
17450;BME280;8842;51.244;7.102;2024-03-22T06:38:31;99578.23;;;11.80;100.00
17450;BME280;8842;51.244;7.102;2024-03-22T06:43:36;99571.94;;;11.81;100.00
17450;BME280;8842;51.244;7.102;2024-03-22T06:53:51;99570.50;;;12.31;100.00
17450;BME280;8842;51.244;7.102;2024-03-22T06:58:55;99572.23;;;12.58;100.00
17450;BME280;8842;51.244;7.102;2024-03-22T07:03:59;99569.16;;;12.88;100.00
17450;BME280;8842;51.244;7.102;2024-03-22T07:14:15;99567.02;;;13.23;100.00
17450;BME280;8842;51.244;7.102;2024-03-22T07:19:19;99569.39;;;13.17;100.00
17450;BME280;8842;51.244;7.102;2024-03-22T07:24:24;99562.76;;;13.26;100.00
17450;BME280;8842;51.244;7.102;2024-03-22T07:34:45;99550.08;;;13.39;100.00
17450;BME280;8842;51.244;7.102;2024-03-22T07:39:48;99561.63;;;13.49;100.00
17450;BME280;8842;51.244;7.102;2024-03-22T07:44:52;99557.02;;;13.51;100.00
17450;BME280;8842;51.244;7.102;2024-03-22T07:49:57;99563.57;;;13.62;100.00
17450;BME280;8842;51.244;7.102;2024-03-22T08:00:14;99542.43;;;14.58;100.00
17450;BME280;8842;51.244;7.102;2024-03-22T08:05:18;99545.16;;;14.90;100.00
17450;BME280;8842;51.244;7.102;2024-03-22T08:10:23;99542.70;;;14.83;100.00
17450;BME280;8842;51.244;7.102;2024-03-22T08:15:27;99540.85;;;15.03;100.00
17450;BME280;8842;51.244;7.102;2024-03-22T08:20:31;99532.16;;;15.14;100.00
17450;BME280;8842;51.244;7.102;2024-03-22T08:25:37;99523.80;;;15.04;100.00
17450;BME280;8842;51.244;7.102;2024-03-22T08:35:53;99529.09;;;15.23;100.00
17450;BME280;8842;51.244;7.102;2024-03-22T08:46:08;99525.65;;;15.26;100.00
17450;BME280;8842;51.244;7.102;2024-03-22T08:51:13;99521.60;;;15.13;100.00
17450;BME280;8842;51.244;7.102;2024-03-22T09:01:28;99524.19;;;15.91;100.00
17450;BME280;8842;51.244;7.102;2024-03-22T09:06:32;99522.30;;;15.88;100.00
17450;BME280;8842;51.244;7.102;2024-03-22T09:11:36;99516.30;;;15.90;99.67
17450;BME280;8842;51.244;7.102;2024-03-22T09:16:40;99517.45;;;15.60;92.96
17450;BME280;8842;51.244;7.102;2024-03-22T09:21:44;99501.68;;;15.71;92.85
17450;BME280;8842;51.244;7.102;2024-03-22T09:26:49;99495.82;;;15.35;94.29
17450;BME280;8842;51.244;7.102;2024-03-22T09:31:53;99500.03;;;15.47;98.29
17450;BME280;8842;51.244;7.102;2024-03-22T09:36:57;99495.60;;;15.42;96.53
17450;BME280;8842;51.244;7.102;2024-03-22T09:42:01;99501.63;;;15.21;96.52
17450;BME280;8842;51.244;7.102;2024-03-22T09:47:08;99496.65;;;15.45;98.15
17450;BME280;8842;51.244;7.102;2024-03-22T09:52:13;99488.20;;;15.94;95.72
17450;BME280;8842;51.244;7.102;2024-03-22T10:02:30;99476.17;;;15.67;96.63
17450;BME280;8842;51.244;7.102;2024-03-22T10:12:46;99471.45;;;15.78;89.75
17450;BME280;8842;51.244;7.102;2024-03-22T10:17:50;99461.40;;;16.08;91.92
17450;BME280;8842;51.244;7.102;2024-03-22T10:22:58;99455.08;;;16.44;87.83
17450;BME280;8842;51.244;7.102;2024-03-22T10:28:03;99450.03;;;16.27;89.23
17450;BME280;8842;51.244;7.102;2024-03-22T10:33:08;99451.09;;;16.34;84.35
17450;BME280;8842;51.244;7.102;2024-03-22T10:38:13;99445.85;;;15.80;88.74
17450;BME280;8842;51.244;7.102;2024-03-22T10:43:18;99432.37;;;15.41;89.77
17450;BME280;8842;51.244;7.102;2024-03-22T10:53:36;99433.70;;;15.41;87.65
17450;BME280;8842;51.244;7.102;2024-03-22T10:58:41;99425.52;;;15.56;84.97
17450;BME280;8842;51.244;7.102;2024-03-22T11:03:48;99416.69;;;15.77;85.27
17450;BME280;8842;51.244;7.102;2024-03-22T11:14:04;99393.23;;;15.71;84.24
17450;BME280;8842;51.244;7.102;2024-03-22T11:19:08;99393.39;;;15.87;83.92
17450;BME280;8842;51.244;7.102;2024-03-22T11:24:12;99386.63;;;16.18;87.13
17450;BME280;8842;51.244;7.102;2024-03-22T11:29:16;99385.19;;;16.28;85.59
17450;BME280;8842;51.244;7.102;2024-03-22T11:39:34;99347.88;;;16.30;84.08
17450;BME280;8842;51.244;7.102;2024-03-22T11:44:40;99367.67;;;16.16;85.53
17450;BME280;8842;51.244;7.102;2024-03-22T11:54:56;99362.02;;;16.40;85.09
17450;BME280;8842;51.244;7.102;2024-03-22T12:05:12;99355.38;;;16.05;79.07
17450;BME280;8842;51.244;7.102;2024-03-22T12:15:28;99357.73;;;16.47;84.45
17450;BME280;8842;51.244;7.102;2024-03-22T12:20:33;99347.11;;;16.42;80.04
17450;BME280;8842;51.244;7.102;2024-03-22T12:30:49;99350.48;;;16.22;77.71
17450;BME280;8842;51.244;7.102;2024-03-22T12:41:08;99342.52;;;16.30;78.57
17450;BME280;8842;51.244;7.102;2024-03-22T12:46:12;99338.69;;;16.37;78.90
17450;BME280;8842;51.244;7.102;2024-03-22T12:51:17;99325.95;;;16.13;82.28
17450;BME280;8842;51.244;7.102;2024-03-22T12:56:22;99314.59;;;16.15;85.08
17450;BME280;8842;51.244;7.102;2024-03-22T13:01:27;99300.69;;;16.41;86.63
17450;BME280;8842;51.244;7.102;2024-03-22T13:11:43;99283.98;;;15.96;88.99
17450;BME280;8842;51.244;7.102;2024-03-22T13:16:47;99283.31;;;15.76;91.86
17450;BME280;8842;51.244;7.102;2024-03-22T13:21:52;99272.93;;;15.56;92.92
17450;BME280;8842;51.244;7.102;2024-03-22T13:26:56;99262.74;;;15.42;94.77
17450;BME280;8842;51.244;7.102;2024-03-22T13:32:00;99259.19;;;15.37;96.38
17450;BME280;8842;51.244;7.102;2024-03-22T13:37:04;99249.03;;;15.27;97.85
17450;BME280;8842;51.244;7.102;2024-03-22T13:47:20;99233.09;;;15.22;100.00
17450;BME280;8842;51.244;7.102;2024-03-22T13:57:36;99216.56;;;15.09;100.00
17450;BME280;8842;51.244;7.102;2024-03-22T14:02:40;99210.31;;;14.87;100.00
17450;BME280;8842;51.244;7.102;2024-03-22T14:07:45;99213.81;;;14.70;100.00
17450;BME280;8842;51.244;7.102;2024-03-22T14:12:49;99217.27;;;14.53;100.00
17450;BME280;8842;51.244;7.102;2024-03-22T14:18:00;99214.67;;;14.57;100.00
17450;BME280;8842;51.244;7.102;2024-03-22T14:23:06;99206.35;;;14.60;100.00
17450;BME280;8842;51.244;7.102;2024-03-22T14:28:10;99201.63;;;14.31;100.00
17450;BME280;8842;51.244;7.102;2024-03-22T14:38:27;99193.50;;;13.99;100.00
17450;BME280;8842;51.244;7.102;2024-03-22T14:43:31;99179.44;;;13.97;100.00
17450;BME280;8842;51.244;7.102;2024-03-22T14:48:37;99189.55;;;13.80;100.00
17450;BME280;8842;51.244;7.102;2024-03-22T14:53:41;99188.64;;;13.85;100.00
17450;BME280;8842;51.244;7.102;2024-03-22T14:58:45;99193.47;;;13.53;100.00
17450;BME280;8842;51.244;7.102;2024-03-22T15:03:49;99176.92;;;13.50;100.00
17450;BME280;8842;51.244;7.102;2024-03-22T15:14:06;99171.73;;;13.39;100.00
17450;BME280;8842;51.244;7.102;2024-03-22T15:19:11;99166.78;;;13.11;100.00
17450;BME280;8842;51.244;7.102;2024-03-22T15:24:15;99157.69;;;12.99;100.00
17450;BME280;8842;51.244;7.102;2024-03-22T15:34:31;99159.12;;;12.69;100.00
17450;BME280;8842;51.244;7.102;2024-03-22T15:44:46;99161.22;;;12.46;100.00
17450;BME280;8842;51.244;7.102;2024-03-22T15:55:04;99154.94;;;12.08;100.00
17450;BME280;8842;51.244;7.102;2024-03-22T16:05:24;99124.87;;;11.71;100.00
17450;BME280;8842;51.244;7.102;2024-03-22T16:10:29;99145.84;;;11.59;100.00
17450;BME280;8842;51.244;7.102;2024-03-22T16:15:33;99136.21;;;11.53;100.00
17450;BME280;8842;51.244;7.102;2024-03-22T16:31:03;99121.94;;;11.39;100.00
17450;BME280;8842;51.244;7.102;2024-03-22T16:36:08;99120.15;;;11.34;100.00
17450;BME280;8842;51.244;7.102;2024-03-22T16:41:13;99113.68;;;11.27;100.00
17450;BME280;8842;51.244;7.102;2024-03-22T16:51:29;99104.03;;;11.26;100.00
17450;BME280;8842;51.244;7.102;2024-03-22T16:56:33;99099.36;;;11.18;100.00
17450;BME280;8842;51.244;7.102;2024-03-22T17:06:48;99090.32;;;11.15;100.00
17450;BME280;8842;51.244;7.102;2024-03-22T17:17:06;99085.27;;;11.12;100.00
17450;BME280;8842;51.244;7.102;2024-03-22T17:27:23;99089.98;;;11.09;100.00
17450;BME280;8842;51.244;7.102;2024-03-22T17:32:27;99093.80;;;10.95;100.00
17450;BME280;8842;51.244;7.102;2024-03-22T17:42:43;99086.94;;;10.93;100.00
17450;BME280;8842;51.244;7.102;2024-03-22T17:52:59;99082.48;;;10.93;100.00
17450;BME280;8842;51.244;7.102;2024-03-22T18:08:32;99068.05;;;10.81;100.00
17450;BME280;8842;51.244;7.102;2024-03-22T18:13:36;99071.72;;;10.69;100.00
17450;BME280;8842;51.244;7.102;2024-03-22T18:18:42;99071.25;;;10.64;100.00
17450;BME280;8842;51.244;7.102;2024-03-22T18:23:46;99069.02;;;10.54;100.00
17450;BME280;8842;51.244;7.102;2024-03-22T18:28:50;99061.42;;;10.49;100.00
17450;BME280;8842;51.244;7.102;2024-03-22T18:33:54;99072.05;;;10.49;100.00
17450;BME280;8842;51.244;7.102;2024-03-22T18:38:58;99063.27;;;10.49;100.00
17450;BME280;8842;51.244;7.102;2024-03-22T18:49:17;99058.52;;;10.58;100.00
17450;BME280;8842;51.244;7.102;2024-03-22T18:59:33;99049.48;;;10.55;100.00
17450;BME280;8842;51.244;7.102;2024-03-22T19:04:37;99059.97;;;10.51;100.00
17450;BME280;8842;51.244;7.102;2024-03-22T19:14:55;99035.95;;;10.58;100.00
17450;BME280;8842;51.244;7.102;2024-03-22T19:19:59;99027.98;;;10.52;100.00
17450;BME280;8842;51.244;7.102;2024-03-22T19:25:04;99023.91;;;10.48;100.00
17450;BME280;8842;51.244;7.102;2024-03-22T19:30:10;99036.59;;;10.50;100.00
17450;BME280;8842;51.244;7.102;2024-03-22T19:40:27;99027.64;;;10.20;100.00
17450;BME280;8842;51.244;7.102;2024-03-22T19:50:45;98979.64;;;9.69;100.00
17450;BME280;8842;51.244;7.102;2024-03-22T19:55:49;98967.39;;;9.51;100.00
17450;BME280;8842;51.244;7.102;2024-03-22T20:06:08;98979.84;;;9.34;100.00
17450;BME280;8842;51.244;7.102;2024-03-22T20:11:13;98982.48;;;9.34;100.00
17450;BME280;8842;51.244;7.102;2024-03-22T20:21:31;98975.09;;;9.54;100.00
17450;BME280;8842;51.244;7.102;2024-03-22T20:26:36;98974.99;;;9.50;100.00
17450;BME280;8842;51.244;7.102;2024-03-22T20:31:40;98968.62;;;9.42;100.00
